Time;durP1;ratioP1;P1;durP2;ratioP2;P2;SDS_P1;SDS_P2;PMS_P1;PMS_P2;Temp;Humidity;BMP_temperature;BMP_pressure;BME280_temperature;BME280_humidity;BME280_pressure;Samples;Min_cycle;Max_cycle;Signal;HPM_P1;HPM_P2
2020/12/30 00:00:30;;;;;;;16.52;10.23;;;11.30;99.90;;;;;;6123035;23;20053;-81
2020/12/30 00:02:56;;;;;;;19.88;11.07;;;11.20;99.90;;;;;;6122839;23;20089;-83
2020/12/30 00:05:22;;;;;;;18.23;10.10;;;11.20;99.90;;;;;;6124256;23;20446;-83
2020/12/30 00:07:48;;;;;;;14.32;8.07;;;11.20;99.90;;;;;;6124521;23;20041;-84
2020/12/30 00:10:19;;;;;;;12.38;7.97;;;11.20;99.90;;;;;;6098259;23;20085;-81
2020/12/30 00:12:45;;;;;;;;;;;11.20;99.90;;;;;;6115809;23;20093;-82
2020/12/30 00:15:12;;;;;;;12.02;7.07;;;11.20;99.90;;;;;;6124303;23;19940;-84
2020/12/30 00:17:40;;;;;;;13.48;7.05;;;11.30;99.90;;;;;;6124484;23;20017;-81
2020/12/30 00:20:11;;;;;;;9.38;6.53;;;11.20;99.90;;;;;;6097699;23;20006;-84
2020/12/30 00:22:37;;;;;;;10.50;6.85;;;11.20;99.90;;;;;;6097997;23;20097;-82
2020/12/30 00:25:04;;;;;;;13.40;7.30;;;11.30;99.90;;;;;;6123874;23;20029;-82
2020/12/30 00:27:30;;;;;;;13.70;8.98;;;11.30;99.90;;;;;;6124081;23;20006;-83
2020/12/30 00:29:56;;;;;;;13.13;8.82;;;11.20;99.90;;;;;;6098497;23;20077;-83
2020/12/30 00:32:22;;;;;;;13.43;9.50;;;11.20;99.90;;;;;;6097644;23;20021;-81
2020/12/30 00:34:48;;;;;;;15.75;10.65;;;11.20;99.90;;;;;;6124632;23;20006;-81
2020/12/30 00:37:14;;;;;;;20.02;11.18;;;11.10;99.90;;;;;;6124285;23;20003;-82
2020/12/30 00:39:40;;;;;;;24.33;14.18;;;11.10;99.90;;;;;;6098222;23;20017;-85
2020/12/30 00:42:06;;;;;;;23.70;13.40;;;11.10;99.90;;;;;;6098133;23;20421;-82
2020/12/30 00:44:32;;;;;;;17.42;11.73;;;11.10;99.90;;;;;;6123629;23;20002;-82
2020/12/30 00:46:58;;;;;;;20.90;9.68;;;11.00;99.90;;;;;;6098509;23;20018;-84
2020/12/30 00:49:25;;;;;;;16.95;11.15;;;11.10;99.90;;;;;;6124776;23;20005;-84
2020/12/30 00:51:53;;;;;;;21.73;11.02;;;10.90;99.90;;;;;;6123891;23;20009;-83
2020/12/30 00:54:19;;;;;;;15.82;8.98;;;10.70;99.90;;;;;;6124457;23;20065;-84
2020/12/30 00:56:49;;;;;;;14.80;8.48;;;10.80;99.90;;;;;;6098147;23;20072;-84
2020/12/30 00:59:15;;;;;;;14.93;7.83;;;10.90;99.90;;;;;;6098460;23;20013;-84
2020/12/30 01:01:42;;;;;;;15.32;9.35;;;10.90;99.90;;;;;;6098565;23;20231;-83
2020/12/30 01:04:09;;;;;;;19.45;10.82;;;10.80;99.90;;;;;;6124442;23;20009;-82
2020/12/30 01:06:34;;;;;;;20.27;10.18;;;10.90;99.90;;;;;;6098603;23;20441;-83
2020/12/30 01:09:00;;;;;;;17.02;9.02;;;10.80;99.90;;;;;;6124515;23;20121;-82
2020/12/30 01:11:28;;;;;;;12.32;7.18;;;10.90;99.90;;;;;;6097855;23;20006;-82
2020/12/30 01:13:54;;;;;;;14.40;7.32;;;10.90;99.90;;;;;;6098177;23;20310;-82
2020/12/30 01:16:20;;;;;;;12.35;7.57;;;10.90;99.90;;;;;;6124140;23;19998;-83
2020/12/30 01:18:47;;;;;;;17.80;7.63;;;11.00;99.90;;;;;;6123983;23;20014;-82
2020/12/30 01:21:13;;;;;;;11.25;6.47;;;11.00;99.90;;;;;;6098498;23;20463;-84
2020/12/30 01:23:38;;;;;;;10.30;6.43;;;10.80;99.90;;;;;;6124209;23;20002;-83
2020/12/30 01:26:05;;;;;;;12.38;7.35;;;10.60;99.90;;;;;;6098686;23;20010;-83
2020/12/30 01:28:31;;;;;;;12.68;7.55;;;10.60;99.90;;;;;;6123827;23;20013;-83
2020/12/30 01:30:57;;;;;;;10.88;6.95;;;10.40;99.90;;;;;;6124068;23;20077;-83
2020/12/30 01:33:23;;;;;;;9.88;5.40;;;10.40;99.90;;;;;;6097708;23;20352;-83
2020/12/30 01:35:48;;;;;;;13.82;6.35;;;10.70;99.90;;;;;;6124194;23;20432;-83
2020/12/30 01:38:14;;;;;;;12.88;7.20;;;10.90;99.90;;;;;;6099785;23;20392;-83
2020/12/30 01:40:40;;;;;;;13.48;8.18;;;10.90;99.90;;;;;;6100345;23;19998;-84
2020/12/30 01:43:06;;;;;;;13.77;8.85;;;10.40;99.90;;;;;;6099668;23;20013;-83
2020/12/30 01:45:32;;;;;;;13.38;8.02;;;10.40;99.90;;;;;;6125931;23;20391;-84
2020/12/30 01:48:02;;;;;;;14.23;8.10;;;10.70;99.90;;;;;;6125960;23;20018;-82
2020/12/30 01:50:27;;;;;;;17.27;7.78;;;10.70;99.90;;;;;;6125707;23;20137;-82
2020/12/30 01:52:55;;;;;;;13.82;7.90;;;10.80;99.90;;;;;;6125953;23;20041;-85
2020/12/30 01:55:24;;;;;;;14.70;8.88;;;10.20;99.90;;;;;;6126015;23;20666;-84
2020/12/30 01:57:49;;;;;;;13.77;7.90;;;10.20;99.90;;;;;;6099680;23;20016;-84
2020/12/30 02:00:15;;;;;;;16.88;7.97;;;10.30;99.90;;;;;;6099970;23;20006;-84
2020/12/30 02:02:53;;;;;;;13.15;7.88;;;10.50;99.90;;;;;;6098835;23;20437;-84
2020/12/30 02:05:21;;;;;;;17.48;8.18;;;10.50;99.90;;;;;;6099085;23;20014;-84
2020/12/30 02:07:47;;;;;;;13.48;8.07;;;10.60;99.90;;;;;;6124898;23;20365;-84
2020/12/30 02:10:15;;;;;;;12.07;7.43;;;10.60;99.90;;;;;;6100033;23;20531;-82
2020/12/30 02:12:41;;;;;;;13.85;7.00;;;10.60;99.90;;;;;;6099761;23;20018;-84
2020/12/30 02:15:07;;;;;;;12.13;7.68;;;10.40;99.90;;;;;;6099013;23;20005;-85
2020/12/30 02:17:33;;;;;;;14.13;7.20;;;10.50;99.90;;;;;;6099685;23;20010;-84
2020/12/30 02:19:59;;;;;;;13.38;8.70;;;10.40;99.90;;;;;;6125206;23;20013;-84
2020/12/30 02:22:28;;;;;;;13.75;7.90;;;10.50;99.90;;;;;;6125567;23;20010;-83
2020/12/30 02:24:54;;;;;;;11.85;6.95;;;10.40;99.90;;;;;;6099246;23;19998;-83
2020/12/30 02:27:19;;;;;;;11.77;7.57;;;10.30;99.90;;;;;;6099033;23;20009;-86
2020/12/30 02:29:45;;;;;;;15.77;7.65;;;10.40;99.90;;;;;;6125611;23;20030;-85
2020/12/30 02:32:13;;;;;;;12.02;7.60;;;10.60;99.90;;;;;;6099334;23;20021;-84
2020/12/30 02:34:39;;;;;;;14.68;6.68;;;10.40;99.90;;;;;;6099303;23;20006;-83
2020/12/30 02:37:05;;;;;;;8.55;4.90;;;10.60;99.90;;;;;;6099436;23;20017;-80
2020/12/30 02:39:31;;;;;;;10.77;6.45;;;10.60;99.90;;;;;;6125440;23;20009;-83
2020/12/30 02:41:56;;;;;;;14.73;6.75;;;10.60;99.90;;;;;;6099376;23;20056;-85
2020/12/30 02:44:22;;;;;;;12.15;6.70;;;10.60;99.90;;;;;;6099084;23;20405;-83
2020/12/30 02:46:48;;;;;;;10.45;5.68;;;10.60;99.90;;;;;;6099452;23;20435;-84
2020/12/30 02:49:15;;;;;;;17.30;6.40;;;10.70;99.90;;;;;;6099392;23;20332;-82
2020/12/30 02:51:42;;;;;;;13.27;6.35;;;10.60;99.90;;;;;;6125884;23;20017;-82
2020/12/30 02:54:08;;;;;;;10.70;6.00;;;10.50;99.90;;;;;;6099287;23;20017;-83
2020/12/30 02:56:34;;;;;;;10.32;5.22;;;10.50;99.90;;;;;;6099721;23;20010;-84
2020/12/30 02:59:01;;;;;;;13.93;5.50;;;10.40;99.90;;;;;;6099667;23;20006;-85
2020/12/30 03:01:27;;;;;;;11.35;5.57;;;10.20;99.90;;;;;;6099115;23;20053;-82
2020/12/30 03:03:52;;;;;;;11.93;5.53;;;10.10;99.90;;;;;;6099694;23;20010;-83
2020/12/30 03:06:24;;;;;;;8.32;5.15;;;10.20;99.90;;;;;;6099159;23;20017;-84
2020/12/30 03:08:50;;;;;;;11.65;6.03;;;10.30;99.90;;;;;;6124694;23;20013;-83
2020/12/30 03:11:16;;;;;;;9.80;5.22;;;10.40;99.90;;;;;;6098872;23;20006;-85
2020/12/30 03:13:41;;;;;;;10.25;6.25;;;10.40;99.90;;;;;;6124918;23;20013;-85
2020/12/30 03:16:08;;;;;;;12.70;6.20;;;10.30;99.90;;;;;;6124588;23;20025;-84
2020/12/30 03:18:34;;;;;;;9.63;5.78;;;10.30;99.90;;;;;;6099130;23;20100;-84
2020/12/30 03:21:00;;;;;;;10.48;5.75;;;10.40;99.90;;;;;;6125050;23;20033;-84
2020/12/30 03:23:26;;;;;;;14.00;6.32;;;10.50;99.90;;;;;;6099442;23;20064;-85
2020/12/30 03:25:51;;;;;;;8.60;5.22;;;10.40;99.90;;;;;;6098796;23;20006;-84
2020/12/30 03:28:17;;;;;;;11.02;5.72;;;10.40;99.90;;;;;;6099410;23;20010;-85
2020/12/30 03:30:43;;;;;;;14.60;7.10;;;10.00;99.90;;;;;;6099017;23;20425;-85
2020/12/30 03:33:08;;;;;;;15.45;7.93;;;10.10;99.90;;;;;;6098023;23;20338;-84
2020/12/30 03:35:34;;;;;;;12.20;7.43;;;10.10;99.90;;;;;;6204745;23;20008;-83
2020/12/30 03:38:01;;;;;;;11.63;6.45;;;10.20;99.90;;;;;;6217796;23;20001;-84
2020/12/30 03:40:27;;;;;;;10.13;5.72;;;10.40;99.90;;;;;;6242538;23;20050;-84
2020/12/30 03:42:52;;;;;;;12.07;6.10;;;10.40;99.90;;;;;;6243111;23;20050;-83
2020/12/30 03:45:18;;;;;;;12.45;6.72;;;10.20;99.90;;;;;;6242100;23;20038;-83
2020/12/30 03:47:44;;;;;;;8.80;5.70;;;10.20;99.90;;;;;;6242824;23;20132;-83
2020/12/30 03:50:10;;;;;;;11.23;5.68;;;10.20;99.90;;;;;;6244437;23;20011;-85
2020/12/30 03:52:35;;;;;;;14.93;7.15;;;10.20;99.90;;;;;;6216884;23;20016;-84
2020/12/30 03:55:01;;;;;;;12.02;6.63;;;9.80;99.90;;;;;;6244291;23;20032;-83
2020/12/30 03:57:27;;;;;;;8.40;5.45;;;9.60;99.90;;;;;;6217420;23;20453;-83
2020/12/30 03:59:53;;;;;;;11.13;5.82;;;9.90;99.90;;;;;;6217646;23;20330;-84
2020/12/30 04:02:18;;;;;;;11.65;6.50;;;10.20;99.90;;;;;;6244195;23;19992;-85
2020/12/30 04:04:44;;;;;;;13.65;6.35;;;10.30;99.90;;;;;;6217287;23;20023;-84
2020/12/30 04:07:11;;;;;;;12.32;6.40;;;10.30;99.90;;;;;;6243905;23;20004;-84
2020/12/30 04:09:37;;;;;;;12.18;6.38;;;10.30;99.90;;;;;;6244352;23;20015;-83
2020/12/30 04:12:03;;;;;;;13.00;6.35;;;10.00;99.90;;;;;;6244041;23;20000;-82
2020/12/30 04:14:29;;;;;;;13.98;7.15;;;10.10;99.90;;;;;;6244872;23;20000;-82
2020/12/30 04:16:55;;;;;;;9.00;5.90;;;9.80;99.90;;;;;;6217419;23;20063;-83
2020/12/30 04:19:21;;;;;;;11.82;7.05;;;9.80;99.90;;;;;;6244243;23;20008;-83
2020/12/30 04:21:47;;;;;;;12.48;6.47;;;9.70;99.90;;;;;;6244199;23;20318;-83
2020/12/30 04:24:13;;;;;;;11.15;6.35;;;9.90;99.90;;;;;;6244144;23;20429;-84
2020/12/30 04:26:38;;;;;;;10.77;6.40;;;9.70;99.90;;;;;;6242457;23;20008;-84
2020/12/30 04:29:04;;;;;;;9.07;6.00;;;9.70;99.90;;;;;;6217671;23;20474;-85
2020/12/30 04:31:30;;;;;;;12.02;6.05;;;9.80;99.90;;;;;;6242696;23;20004;-85
2020/12/30 04:33:56;;;;;;;8.65;6.13;;;10.00;99.90;;;;;;6238680;23;20095;-83
2020/12/30 04:36:22;;;;;;;12.20;6.50;;;9.70;99.90;;;;;;6213844;23;20462;-84
2020/12/30 04:38:47;;;;;;;10.38;6.43;;;9.60;99.90;;;;;;6187732;23;20051;-84
2020/12/30 04:41:16;;;;;;;9.20;6.47;;;9.70;99.90;;;;;;6213851;23;20063;-81
2020/12/30 04:43:45;;;;;;;11.02;5.85;;;9.70;99.90;;;;;;6213407;23;20004;-82
2020/12/30 04:46:13;;;;;;;10.73;5.65;;;9.80;99.90;;;;;;6213699;23;20051;-83
2020/12/30 04:48:40;;;;;;;11.18;5.70;;;10.10;99.90;;;;;;6186507;23;20012;-82
2020/12/30 04:51:06;;;;;;;11.02;6.50;;;10.20;99.90;;;;;;6187082;23;20157;-82
2020/12/30 04:53:34;;;;;;;8.27;5.68;;;10.20;99.90;;;;;;6187208;23;20009;-84
2020/12/30 04:56:01;;;;;;;12.98;6.32;;;10.20;99.90;;;;;;6213636;23;20005;-84
2020/12/30 04:58:31;;;;;;;12.50;7.10;;;10.00;99.90;;;;;;6187447;23;20024;-83
2020/12/30 05:00:58;;;;;;;9.73;5.82;;;9.80;99.90;;;;;;6213684;23;20347;-84
2020/12/30 05:03:31;;;;;;;11.02;6.35;;;10.00;99.90;;;;;;6214115;23;20059;-82
2020/12/30 05:06:04;;;;;;;11.93;6.05;;;10.10;99.90;;;;;;6186743;23;20088;-80
2020/12/30 05:08:33;;;;;;;10.57;6.47;;;10.20;99.90;;;;;;6186595;23;20036;-86
2020/12/30 05:11:00;;;;;;;12.75;6.65;;;10.20;99.90;;;;;;6214237;23;20001;-84
2020/12/30 05:13:26;;;;;;;9.43;6.30;;;9.80;99.90;;;;;;6189046;23;20016;-83
2020/12/30 05:15:56;;;;;;;11.90;6.22;;;9.90;99.90;;;;;;6215265;23;20005;-82
2020/12/30 05:18:23;;;;;;;14.10;6.60;;;10.10;99.90;;;;;;6188609;23;20012;-82
2020/12/30 05:20:49;;;;;;;10.45;6.72;;;10.00;99.90;;;;;;6188635;23;20004;-82
2020/12/30 05:23:14;;;;;;;9.88;6.47;;;10.00;99.90;;;;;;6188497;23;20051;-80
2020/12/30 05:25:42;;;;;;;11.45;6.38;;;9.70;99.90;;;;;;6214853;23;20047;-80
2020/12/30 05:28:13;;;;;;;12.23;7.35;;;9.70;99.90;;;;;;6188233;23;20012;-80
2020/12/30 05:30:43;;;;;;;9.13;5.95;;;10.00;99.90;;;;;;6188509;23;20005;-81
2020/12/30 05:33:10;;;;;;;13.57;7.05;;;10.10;99.90;;;;;;6188256;23;20013;-82
2020/12/30 05:35:36;;;;;;;15.40;7.03;;;10.10;99.90;;;;;;6241208;23;20043;-82
2020/12/30 05:38:03;;;;;;;14.90;7.32;;;10.10;99.90;;;;;;6245240;23;20011;-82
2020/12/30 05:40:31;;;;;;;8.93;7.13;;;10.00;99.90;;;;;;6218383;23;19996;-84
2020/12/30 05:43:17;;;;;;;12.13;6.97;;;10.00;99.90;;;;;;6245748;23;20066;-83
2020/12/30 05:45:47;;;;;;;13.00;6.72;;;10.10;99.90;;;;;;6218426;23;19996;-83
2020/12/30 05:48:13;;;;;;;9.80;6.55;;;10.00;99.90;;;;;;6218553;23;20012;-84
2020/12/30 05:50:53;;;;;;;13.77;6.15;;;10.10;99.90;;;;;;6218459;23;20012;-84
2020/12/30 05:53:20;;;;;;;10.00;6.15;;;10.10;99.90;;;;;;6218974;23;20071;-84
2020/12/30 05:55:48;;;;;;;13.25;6.65;;;10.10;99.90;;;;;;6217971;23;20642;-85
2020/12/30 05:58:16;;;;;;;12.00;6.10;;;10.10;99.90;;;;;;6218639;23;20083;-84
2020/12/30 06:00:42;;;;;;;11.05;5.70;;;10.10;99.90;;;;;;6245071;23;20003;-82
2020/12/30 06:03:08;;;;;;;9.88;5.13;;;10.00;99.90;;;;;;6245321;23;20317;-83
2020/12/30 06:05:34;;;;;;;10.88;6.07;;;9.90;99.90;;;;;;6245625;23;20304;-82
2020/12/30 06:08:00;;;;;;;9.02;5.55;;;9.90;99.90;;;;;;6245075;23;20464;-83
2020/12/30 06:10:27;;;;;;;10.82;5.85;;;10.00;99.90;;;;;;6245374;23;20054;-83
2020/12/30 06:12:58;;;;;;;12.88;5.20;;;10.10;99.90;;;;;;6213572;23;20008;-84
2020/12/30 06:15:28;;;;;;;9.25;5.43;;;10.20;99.90;;;;;;6244244;23;20004;-82
2020/12/30 06:18:09;;;;;;;13.57;5.60;;;10.20;99.90;;;;;;6244998;23;20007;-84
2020/12/30 06:20:40;;;;;;;27.40;16.65;;;10.10;99.90;;;;;;6218527;23;20008;-85
2020/12/30 06:23:15;;;;;;;71.18;35.70;;;10.00;99.90;;;;;;6243552;23;20004;-84
2020/12/30 06:25:43;;;;;;;18.38;11.30;;;10.20;99.90;;;;;;6245041;23;20587;-83
2020/12/30 06:28:16;;;;;;;22.40;12.95;;;10.50;99.90;;;;;;6242612;23;20012;-82
2020/12/30 06:30:51;;;;;;;20.23;10.52;;;10.70;99.90;;;;;;6243208;23;20075;-80
2020/12/30 06:33:22;;;;;;;13.10;8.05;;;10.70;99.90;;;;;;6217065;23;20020;-83
2020/12/30 06:35:54;;;;;;;20.55;11.25;;;10.30;99.90;;;;;;6243771;23;20100;-87
2020/12/30 06:38:22;;;;;;;19.02;10.30;;;10.40;99.90;;;;;;6242061;23;20054;-81
2020/12/30 06:41:05;;;;;;;15.90;8.23;;;10.60;99.90;;;;;;6217291;23;20369;-81
2020/12/30 06:43:48;;;;;;;15.75;6.82;;;10.50;99.90;;;;;;6243595;23;20004;-83
2020/12/30 06:46:23;;;;;;;12.23;7.22;;;10.50;99.90;;;;;;6243942;23;19997;-83
2020/12/30 06:48:55;;;;;;;10.82;6.35;;;10.50;99.90;;;;;;6216761;23;20066;-83
2020/12/30 06:51:21;;;;;;;15.95;8.73;;;10.50;99.90;;;;;;6243919;23;20000;-83
2020/12/30 06:53:51;;;;;;;19.75;8.88;;;9.70;99.90;;;;;;6217519;23;20016;-83
2020/12/30 06:56:44;;;;;;;12.00;7.28;;;9.70;99.90;;;;;;6215269;23;20024;-84
2020/12/30 06:59:36;;;;;;;20.45;9.70;;;10.00;99.90;;;;;;6243441;23;20389;-83
2020/12/30 07:02:03;;;;;;;16.20;7.28;;;10.00;99.90;;;;;;6211029;23;20027;-83
2020/12/30 07:04:34;;;;;;;14.35;7.28;;;9.80;99.90;;;;;;6244443;23;20102;-85
2020/12/30 07:07:00;;;;;;;42.50;23.88;;;10.10;99.90;;;;;;6217390;23;20000;-85
2020/12/30 07:09:39;;;;;;;25.50;12.68;;;10.20;99.90;;;;;;6217235;23;20011;-81
2020/12/30 07:12:16;;;;;;;23.85;13.57;;;10.30;99.90;;;;;;6243714;23;20004;-84
2020/12/30 07:14:42;;;;;;;14.77;8.05;;;9.90;99.90;;;;;;6244090;23;20334;-82
2020/12/30 07:17:08;;;;;;;14.48;8.23;;;9.70;99.90;;;;;;6240234;23;20070;-82
2020/12/30 07:19:36;;;;;;;12.35;7.40;;;9.90;99.90;;;;;;6243866;23;20015;-84
2020/12/30 07:22:18;;;;;;;14.27;7.78;;;10.20;99.90;;;;;;6242143;23;20000;-83
2020/12/30 07:24:53;;;;;;;16.45;8.00;;;10.30;99.90;;;;;;6216719;23;20062;-83
2020/12/30 07:27:21;;;;;;;17.75;7.53;;;10.40;99.90;;;;;;6242298;23;20000;-81
2020/12/30 07:29:48;;;;;;;15.55;8.10;;;10.40;99.90;;;;;;6216132;23;20000;-83
2020/12/30 07:32:16;;;;;;;18.33;7.53;;;10.00;99.90;;;;;;6244175;23;20454;-83
2020/12/30 07:34:52;;;;;;;14.07;7.30;;;10.00;99.90;;;;;;6243324;23;20020;-82
2020/12/30 07:37:18;;;;;;;16.63;8.45;;;10.20;99.90;;;;;;6243505;23;19996;-83
2020/12/30 07:39:46;;;;;;;13.25;8.07;;;10.50;99.90;;;;;;6216809;23;20004;-83
2020/12/30 07:42:14;;;;;;;18.02;7.72;;;10.50;99.90;;;;;;6243042;23;20012;-83
2020/12/30 07:44:44;;;;;;;14.90;7.30;;;10.60;99.90;;;;;;6244112;23;20004;-82
2020/12/30 07:47:10;;;;;;;19.27;8.23;;;10.30;99.90;;;;;;6217025;23;20430;-83
2020/12/30 07:49:36;;;;;;;14.50;7.82;;;10.20;99.90;;;;;;6217037;23;20020;-83
2020/12/30 07:52:03;;;;;;;11.82;8.18;;;10.30;99.90;;;;;;6243248;23;20311;-83
2020/12/30 07:54:30;;;;;;;11.70;7.15;;;10.50;99.90;;;;;;6217129;23;20004;-81
2020/12/30 07:57:10;;;;;;;16.20;7.07;;;10.60;99.90;;;;;;6214512;23;20004;-82
2020/12/30 07:59:38;;;;;;;16.55;7.93;;;10.50;99.90;;;;;;6243459;23;20007;-83
2020/12/30 08:02:15;;;;;;;14.32;7.65;;;10.80;99.90;;;;;;6216351;23;20001;-82
2020/12/30 08:04:42;;;;;;;13.27;7.22;;;11.20;99.90;;;;;;6242992;23;20019;-82
2020/12/30 08:07:10;;;;;;;14.13;8.30;;;11.30;99.90;;;;;;6215498;23;20323;-83
2020/12/30 08:09:40;;;;;;;17.52;9.60;;;11.10;99.90;;;;;;6216163;23;20004;-83
2020/12/30 08:12:07;;;;;;;;;;;11.20;99.90;;;;;;6216413;23;20119;-84
2020/12/30 08:14:36;;;;;;;26.45;9.48;;;11.30;99.90;;;;;;6242067;23;19904;-84
2020/12/30 08:17:07;;;;;;;24.10;10.68;;;11.20;99.90;;;;;;6215325;23;20016;-82
2020/12/30 08:19:49;;;;;;;18.75;9.77;;;11.20;99.90;;;;;;6243163;23;20410;-84
2020/12/30 08:22:20;;;;;;;21.67;9.20;;;11.90;99.90;;;;;;6243328;23;20030;-83
2020/12/30 08:24:47;;;;;;;23.45;10.27;;;12.20;99.90;;;;;;6243211;23;20000;-84
2020/12/30 08:27:14;;;;;;;15.95;10.68;;;12.50;99.90;;;;;;6243253;23;20054;-84
2020/12/30 08:29:42;;;;;;;25.08;10.60;;;12.90;99.90;;;;;;6241205;23;20004;-82
2020/12/30 08:32:29;;;;;;;19.20;9.75;;;13.50;99.90;;;;;;6241882;23;20018;-84
2020/12/30 08:34:57;;;;;;;16.35;8.93;;;13.50;99.90;;;;;;6243129;23;20023;-83
2020/12/30 08:37:29;;;;;;;17.67;10.10;;;13.50;99.90;;;;;;6243815;23;20004;-83
2020/12/30 08:40:03;;;;;;;18.77;9.40;;;13.50;99.90;;;;;;6234978;23;20019;-84
2020/12/30 08:42:54;;;;;;;17.40;9.68;;;13.00;99.90;;;;;;6215727;23;20434;-85
2020/12/30 08:45:31;;;;;;;23.60;10.82;;;12.90;99.90;;;;;;6244324;23;20028;-82
2020/12/30 08:48:06;;;;;;;23.05;10.40;;;13.10;99.90;;;;;;6244958;23;20004;-84
2020/12/30 08:50:34;;;;;;;15.57;9.05;;;13.50;99.90;;;;;;6245363;23;20314;-82
2020/12/30 08:53:01;;;;;;;18.50;9.10;;;14.10;99.90;;;;;;6218393;23;20338;-84
2020/12/30 08:55:27;;;;;;;18.90;8.95;;;14.60;98.40;;;;;;6245113;23;20004;-84
2020/12/30 08:57:52;;;;;;;15.27;6.97;;;15.10;95.20;;;;;;6245812;23;20058;-82
2020/12/30 09:00:19;;;;;;;13.30;6.85;;;15.00;92.50;;;;;;6245586;23;20377;-84
2020/12/30 09:02:47;;;;;;;14.60;7.00;;;14.90;92.40;;;;;;6245786;23;19996;-81
2020/12/30 09:05:14;;;;;;;18.50;7.93;;;14.90;92.60;;;;;;6245617;23;20032;-82
2020/12/30 09:07:59;;;;;;;20.40;8.15;;;14.60;92.80;;;;;;6218282;23;20478;-83
2020/12/30 09:10:33;;;;;;;13.77;7.85;;;14.60;94.00;;;;;;6216178;23;20059;-82
2020/12/30 09:13:12;;;;;;;14.95;7.38;;;14.60;94.40;;;;;;6244178;23;20092;-83
2020/12/30 09:15:38;;;;;;;17.08;8.40;;;14.70;93.40;;;;;;6210184;23;20907;-82
2020/12/30 09:18:04;;;;;;;16.48;7.63;;;14.50;93.60;;;;;;6241207;23;20339;-83
2020/12/30 09:20:34;;;;;;;14.70;7.55;;;14.40;94.00;;;;;;6217846;23;20534;-81
2020/12/30 09:23:03;;;;;;;15.10;6.20;;;14.40;93.90;;;;;;6242583;23;20429;-82
2020/12/30 09:31:13;;;;;;;10.35;4.00;;;15.00;89.30;;;;;;6154832;23;20068;-83
2020/12/30 09:34:32;;;;;;;;;;;;;;;;;;;;;
2020/12/30 09:36:59;;;;;;;11.27;4.43;;;15.20;84.40;;;;;;6179471;23;20079;-82
2020/12/30 09:40:15;;;;;;;12.60;4.50;;;15.20;84.40;;;;;;6158213;23;20053;-83
2020/12/30 09:42:43;;;;;;;10.25;4.43;;;15.10;84.20;;;;;;6156394;23;20005;-81
2020/12/30 09:45:16;;;;;;;11.25;4.90;;;15.00;84.70;;;;;;6183510;23;20000;-82
2020/12/30 09:50:51;;;;;;;10.57;2.90;;;14.90;85.30;;;;;;6182658;23;20016;-83
2020/12/30 09:53:23;;;;;;;11.10;3.45;;;14.90;84.80;;;;;;6183239;23;20020;-80
2020/12/30 09:56:00;;;;;;;11.52;3.17;;;14.80;84.90;;;;;;6183493;23;20001;-82
2020/12/30 09:58:26;;;;;;;5.75;3.10;;;14.80;85.70;;;;;;6183677;23;20009;-82
2020/12/30 10:00:58;;;;;;;10.70;3.67;;;14.90;85.70;;;;;;6156942;23;20089;-81
2020/12/30 10:03:42;;;;;;;14.85;3.22;;;14.80;85.40;;;;;;6156443;23;20012;-81
2020/12/30 10:06:34;;;;;;;6.03;3.25;;;14.90;85.70;;;;;;6156334;23;20056;-81
2020/12/30 10:09:03;;;;;;;7.63;3.28;;;14.80;86.20;;;;;;6111018;23;20009;-81
2020/12/30 10:11:28;;;;;;;7.82;3.13;;;14.90;87.20;;;;;;6184025;23;20001;-80
2020/12/30 10:13:54;;;;;;;15.60;3.20;;;14.90;87.40;;;;;;6157562;23;20039;-81
2020/12/30 10:16:20;;;;;;;7.78;3.00;;;14.90;87.00;;;;;;6182327;23;20355;-82
2020/12/30 10:18:46;;;;;;;9.40;3.33;;;14.90;87.80;;;;;;6157094;23;20004;-81
2020/12/30 10:21:11;;;;;;;5.85;2.90;;;14.90;86.90;;;;;;6156002;23;20009;-83
2020/12/30 10:23:37;;;;;;;11.07;3.22;;;14.80;88.10;;;;;;6183077;23;20331;-82
2020/12/30 10:26:03;;;;;;;10.35;3.28;;;15.00;88.40;;;;;;6157327;23;20008;-84
2020/12/30 10:28:28;;;;;;;7.18;2.80;;;14.90;89.10;;;;;;6183425;23;20005;-80
2020/12/30 10:30:54;;;;;;;9.98;3.63;;;15.10;87.00;;;;;;6156829;23;20005;-81
2020/12/30 10:33:20;;;;;;;8.93;3.97;;;15.20;88.40;;;;;;6183794;23;20016;-81
2020/12/30 10:35:46;;;;;;;10.02;3.00;;;15.00;87.10;;;;;;6183422;23;20020;-81
2020/12/30 10:38:12;;;;;;;8.68;3.10;;;14.90;88.00;;;;;;6157421;23;20454;-82
2020/12/30 10:40:37;;;;;;;8.98;3.33;;;14.90;88.10;;;;;;6148328;23;20052;-82
2020/12/30 10:43:03;;;;;;;8.43;4.03;;;14.90;88.40;;;;;;6181943;23;20012;-83
2020/12/30 10:45:30;;;;;;;10.32;3.13;;;14.90;88.40;;;;;;6180148;23;20007;-80
2020/12/30 10:47:56;;;;;;;8.02;3.00;;;15.00;88.40;;;;;;6183050;23;20088;-81
2020/12/30 10:50:22;;;;;;;17.05;3.72;;;15.00;87.90;;;;;;6182736;23;20004;-81
2020/12/30 10:52:47;;;;;;;7.82;2.92;;;15.10;87.70;;;;;;6182953;23;20025;-83
2020/12/30 10:55:13;;;;;;;9.95;3.33;;;15.10;88.60;;;;;;6156822;23;20092;-82
2020/12/30 10:57:39;;;;;;;6.18;3.10;;;15.10;88.00;;;;;;6157384;23;20009;-82
2020/12/30 11:00:05;;;;;;;8.60;3.00;;;15.50;84.90;;;;;;6145577;23;20155;-80
2020/12/30 11:02:30;;;;;;;6.65;2.75;;;15.50;84.00;;;;;;6151183;23;20059;-81
2020/12/30 11:04:59;;;;;;;10.57;3.72;;;15.60;83.40;;;;;;6156447;23;20369;-82
2020/12/30 11:07:24;;;;;;;10.10;3.47;;;16.00;80.60;;;;;;6156641;23;20013;-80
2020/12/30 11:09:50;;;;;;;8.52;2.55;;;16.30;77.60;;;;;;6157035;23;20033;-80
2020/12/30 11:12:16;;;;;;;8.38;3.03;;;16.60;76.10;;;;;;6183378;23;20029;-80
2020/12/30 11:14:42;;;;;;;11.05;3.03;;;16.70;74.50;;;;;;6156748;23;20058;-79
2020/12/30 11:17:07;;;;;;;7.30;3.28;;;16.70;74.80;;;;;;6182509;23;20023;-81
2020/12/30 11:19:33;;;;;;;11.65;2.88;;;17.10;75.00;;;;;;6173930;23;20500;-80
2020/12/30 11:21:59;;;;;;;7.95;2.63;;;17.70;71.80;;;;;;6178309;23;20013;-82
2020/12/30 11:24:24;;;;;;;8.13;3.10;;;17.60;70.40;;;;;;6180523;23;20012;-82
2020/12/30 11:26:50;;;;;;;7.82;2.80;;;17.60;69.40;;;;;;6182454;23;20001;-81
2020/12/30 11:29:17;;;;;;;9.50;2.78;;;17.60;69.60;;;;;;6182863;23;20016;-81
2020/12/30 11:31:48;;;;;;;11.25;2.80;;;17.40;69.10;;;;;;6154842;23;20016;-82
2020/12/30 11:34:14;;;;;;;8.85;3.10;;;17.80;68.70;;;;;;6156129;23;20509;-81
2020/12/30 11:36:42;;;;;;;7.28;2.40;;;17.50;69.40;;;;;;6183314;23;20005;-82
2020/12/30 11:39:07;;;;;;;9.82;3.45;;;17.60;68.20;;;;;;6182676;23;20358;-81
2020/12/30 11:41:33;;;;;;;9.10;3.00;;;17.30;68.60;;;;;;6182803;23;20406;-79
2020/12/30 11:43:59;;;;;;;8.30;2.35;;;17.20;68.90;;;;;;6182861;23;20027;-84
2020/12/30 11:46:25;;;;;;;10.02;3.13;;;17.30;68.50;;;;;;6183351;23;20470;-80
2020/12/30 11:48:53;;;;;;;7.93;2.60;;;16.90;69.10;;;;;;6182799;23;20009;-80
2020/12/30 11:51:19;;;;;;;10.43;3.22;;;16.70;68.90;;;;;;6182120;23;20035;-81
2020/12/30 11:53:45;;;;;;;11.55;3.38;;;16.70;70.10;;;;;;6182849;23;20009;-79
2020/12/30 11:56:18;;;;;;;9.82;2.85;;;16.70;70.80;;;;;;6182731;23;20001;-81
2020/12/30 11:58:44;;;;;;;10.80;2.80;;;16.70;70.00;;;;;;6183215;23;20031;-81
2020/12/30 12:01:10;;;;;;;8.85;3.30;;;17.00;69.40;;;;;;6182632;23;19997;-80
2020/12/30 12:03:35;;;;;;;8.85;3.38;;;17.10;69.30;;;;;;6156594;23;20080;-81
2020/12/30 12:06:01;;;;;;;12.05;3.10;;;18.00;66.30;;;;;;6156287;23;20012;-81
2020/12/30 12:08:27;;;;;;;6.50;2.47;;;17.60;66.10;;;;;;6156758;23;20013;-81
2020/12/30 12:10:53;;;;;;;11.00;3.67;;;17.60;66.50;;;;;;6182286;23;20020;-80
2020/12/30 12:13:19;;;;;;;9.55;2.83;;;17.40;68.50;;;;;;6182663;23;20013;-81
2020/12/30 12:15:45;;;;;;;7.25;2.92;;;17.00;67.90;;;;;;6182568;23;20001;-82
2020/12/30 12:18:10;;;;;;;6.93;3.10;;;16.70;68.00;;;;;;6182699;23;20067;-79
2020/12/30 12:20:36;;;;;;;9.77;2.65;;;16.60;69.40;;;;;;6182595;23;20027;-81
2020/12/30 12:23:03;;;;;;;10.43;2.85;;;16.60;67.60;;;;;;6181689;23;20004;-80
2020/12/30 12:25:30;;;;;;;12.80;3.88;;;16.60;68.10;;;;;;6155355;23;20084;-81
2020/12/30 12:27:55;;;;;;;7.53;3.00;;;16.40;69.20;;;;;;6181817;23;20005;-82
2020/12/30 12:30:21;;;;;;;11.48;3.42;;;16.40;70.50;;;;;;6181907;23;20016;-82
2020/12/30 12:32:47;;;;;;;13.38;3.20;;;16.40;71.60;;;;;;6181303;23;20136;-83
2020/12/30 12:35:12;;;;;;;9.43;2.97;;;16.40;71.60;;;;;;6182042;23;20009;-79
2020/12/30 12:37:38;;;;;;;16.63;3.72;;;16.40;71.10;;;;;;6156599;23;20095;-82
2020/12/30 12:40:04;;;;;;;8.35;2.78;;;16.30;70.30;;;;;;6183186;23;20001;-81
2020/12/30 12:42:30;;;;;;;10.60;2.85;;;16.30;70.50;;;;;;6182964;23;20005;-81
2020/12/30 12:44:55;;;;;;;9.93;2.97;;;16.30;70.40;;;;;;6156805;23;20008;-84
2020/12/30 12:47:21;;;;;;;9.82;3.08;;;16.30;71.30;;;;;;6183274;23;20434;-81
2020/12/30 12:49:47;;;;;;;11.63;3.05;;;16.30;70.80;;;;;;6183041;23;20023;-81
2020/12/30 12:52:26;;;;;;;12.07;3.22;;;16.40;69.90;;;;;;6184717;23;20100;-83
2020/12/30 12:54:51;;;;;;;12.68;3.50;;;16.60;70.30;;;;;;6179124;23;20378;-82